createdAt,value
2023-01-30T00:04:17.466Z,3.00
2023-01-30T00:09:22.501Z,3.00
2023-01-30T00:14:27.205Z,3.00
2023-01-30T00:19:31.852Z,2.75
2023-01-30T00:24:36.633Z,5.00
2023-01-30T00:29:41.217Z,4.00
2023-01-30T00:34:45.878Z,2.00
2023-01-30T00:39:51.456Z,2.75
2023-01-30T00:45:14.024Z,2.25
2023-01-30T00:50:18.720Z,4.00
2023-01-30T00:55:23.735Z,4.00
2023-01-30T01:00:28.819Z,3.00
2023-01-30T01:05:33.476Z,4.50
2023-01-30T01:10:38.229Z,4.00
2023-01-30T01:15:42.727Z,2.50
2023-01-30T01:20:47.750Z,3.25
2023-01-30T01:25:52.284Z,3.00
2023-01-30T01:30:56.860Z,3.25
2023-01-30T01:36:04.841Z,2.25
2023-01-30T01:41:11.510Z,2.75
2023-01-30T01:46:20.093Z,2.25
2023-01-30T01:51:34.365Z,12.25
2023-01-30T01:56:43.982Z,10.50
2023-01-30T02:01:50.626Z,8.75
2023-01-30T02:06:57.364Z,8.75
2023-01-30T02:12:02.717Z,5.50
2023-01-30T02:17:12.008Z,7.00
2023-01-30T02:22:29.219Z,6.25
2023-01-30T02:27:53.603Z,5.50
2023-01-30T02:33:04.311Z,5.50
2023-01-30T02:38:12.185Z,5.75
2023-01-30T02:43:49.036Z,4.75
2023-01-30T02:48:59.689Z,6.50
2023-01-30T02:54:07.765Z,5.00
2023-01-30T02:59:12.897Z,5.00
2023-01-30T03:04:37.274Z,5.25
2023-01-30T03:10:03.687Z,5.75
2023-01-30T03:15:09.371Z,4.50
2023-01-30T03:20:15.876Z,6.50
2023-01-30T03:25:24.162Z,3.25
2023-01-30T03:30:29.642Z,6.00
2023-01-30T03:35:44.805Z,5.00
2023-01-30T03:40:52.214Z,5.00
2023-01-30T03:45:57.559Z,5.75
2023-01-30T03:51:02.387Z,7.00
2023-01-30T03:56:09.468Z,7.50
2023-01-30T04:01:14.509Z,7.25
2023-01-30T04:06:20.118Z,7.50
2023-01-30T04:11:25.242Z,8.25
2023-01-30T04:16:30.308Z,7.00
2023-01-30T04:21:50.289Z,6.50
2023-01-30T04:26:55.558Z,7.50
2023-01-30T04:32:00.759Z,9.75
2023-01-30T04:37:10.896Z,35.75
2023-01-30T04:42:16.454Z,32.50
2023-01-30T04:47:36.740Z,31.25
2023-01-30T04:52:44.944Z,29.00
2023-01-30T04:57:50.407Z,27.75
2023-01-30T05:02:57.428Z,26.25
2023-01-30T05:08:03.264Z,25.00
2023-01-30T05:13:08.358Z,24.00
2023-01-30T05:18:12.918Z,22.75
2023-01-30T05:23:20.819Z,24.00
2023-01-30T05:28:26.176Z,33.75
2023-01-30T05:33:31.469Z,31.50
2023-01-30T05:38:36.412Z,50.67
2023-01-30T05:43:40.816Z,101.50
2023-01-30T05:48:45.806Z,138.50
2023-01-30T05:53:51.464Z,185.25
2023-01-30T05:58:57.607Z,190.50
2023-01-30T06:04:03.492Z,171.00
2023-01-30T06:09:08.621Z,155.50
2023-01-30T06:14:14.865Z,151.25
2023-01-30T06:19:19.476Z,147.75
2023-01-30T06:24:24.425Z,137.00
2023-01-30T06:29:29.816Z,143.25
2023-01-30T06:34:34.749Z,135.75
2023-01-30T06:39:39.608Z,129.75
2023-01-30T06:44:45.567Z,132.50
2023-01-30T06:49:50.995Z,131.75
2023-01-30T06:54:55.971Z,123.00
2023-01-30T07:00:00.806Z,121.50
2023-01-30T07:05:10.119Z,117.75
2023-01-30T07:10:15.290Z,110.25
2023-01-30T07:15:20.722Z,105.25
2023-01-30T07:20:26.589Z,100.00
2023-01-30T07:25:32.240Z,110.25
2023-01-30T07:30:38.667Z,110.00
2023-01-30T07:35:43.713Z,103.00
2023-01-30T07:40:48.707Z,102.50
2023-01-30T07:45:53.572Z,104.75
2023-01-30T07:50:59.095Z,98.25
2023-01-30T08:12:10.318Z,80.50
2023-01-30T08:17:15.662Z,74.50
2023-01-30T08:22:20.579Z,79.25
2023-01-30T08:27:25.713Z,80.50
2023-01-30T08:32:31.133Z,79.75
2023-01-30T08:37:36.047Z,75.50
2023-01-30T08:42:40.886Z,77.00
2023-01-30T08:47:45.786Z,73.00
2023-01-30T08:52:50.554Z,69.00
2023-01-30T08:57:57.909Z,70.33
2023-01-30T09:03:03.486Z,69.00
2023-01-30T09:08:09.644Z,61.67
2023-01-30T09:13:14.614Z,55.00
2023-01-30T09:18:19.499Z,51.00
2023-01-30T09:23:24.385Z,56.00
2023-01-30T09:28:29.367Z,53.00
2023-01-30T09:33:36.809Z,51.00
2023-01-30T09:38:41.724Z,48.00
2023-01-30T09:43:51.870Z,47.33
2023-01-30T09:49:22.758Z,56.33
2023-01-30T09:54:36.554Z,58.00
2023-01-30T09:59:47.203Z,76.67
2023-01-30T10:05:01.284Z,65.33
2023-01-30T10:10:06.984Z,89.75
2023-01-30T10:15:21.722Z,161.75
2023-01-30T10:20:42.421Z,129.75
2023-01-30T10:25:57.372Z,90.25
2023-01-30T10:31:22.412Z,77.25
2023-01-30T10:36:36.684Z,71.00
2023-01-30T10:41:52.706Z,59.67
2023-01-30T10:47:12.877Z,51.67
2023-01-30T10:52:21.809Z,64.33
2023-01-30T10:57:33.847Z,56.00
2023-01-30T11:02:38.893Z,52.33
2023-01-30T11:07:45.252Z,46.67
2023-01-30T11:12:51.110Z,42.75
2023-01-30T11:18:33.461Z,41.25
2023-01-30T11:23:36.002Z,35.75
2023-01-30T11:28:46.966Z,36.75
2023-01-30T11:34:04.406Z,37.50
2023-01-30T11:39:15.935Z,33.00
2023-01-30T11:44:27.269Z,32.25
2023-01-30T11:50:08.034Z,29.50
2023-01-30T11:55:09.249Z,28.00
2023-01-30T12:00:22.547Z,27.50
2023-01-30T12:05:27.818Z,28.00
2023-01-30T12:10:42.531Z,25.25
2023-01-30T12:15:52.473Z,23.00
2023-01-30T12:21:00.354Z,24.00
2023-01-30T12:26:06.853Z,22.00
2023-01-30T12:31:24.571Z,21.00
2023-01-30T12:36:49.831Z,18.75
2023-01-30T12:42:18.181Z,19.00
2023-01-30T12:47:25.857Z,13.00
2023-01-30T12:53:06.060Z,17.50
2023-01-30T12:58:26.176Z,13.25
2023-01-30T13:04:03.452Z,13.75
2023-01-30T13:09:17.163Z,13.50
2023-01-30T13:14:21.738Z,12.00
2023-01-30T13:19:41.190Z,12.50
2023-01-30T13:24:46.662Z,11.25
2023-01-30T13:29:52.273Z,8.50
2023-01-30T13:35:00.113Z,11.25
2023-01-30T13:40:14.014Z,10.50
2023-01-30T13:45:24.981Z,9.25
2023-01-30T13:50:38.830Z,11.25
2023-01-30T13:55:58.756Z,10.25
2023-01-30T14:01:05.208Z,10.00
2023-01-30T14:06:16.822Z,8.25
2023-01-30T14:11:33.990Z,10.50
2023-01-30T14:16:46.674Z,12.50
2023-01-30T14:22:02.560Z,14.00
2023-01-30T14:27:26.605Z,12.25
2023-01-30T14:32:53.876Z,12.00
2023-01-30T14:38:19.435Z,15.00
2023-01-30T14:43:29.789Z,14.50
2023-01-30T14:48:44.634Z,11.50
2023-01-30T14:53:52.715Z,14.50
2023-01-30T14:59:02.154Z,11.50
2023-01-30T15:04:07.959Z,11.50
2023-01-30T15:09:17.857Z,13.25
2023-01-30T15:14:42.894Z,15.25
2023-01-30T15:20:06.494Z,13.00
2023-01-30T15:25:24.712Z,10.75
2023-01-30T15:30:31.371Z,14.25
2023-01-30T15:35:39.551Z,12.75
2023-01-30T15:40:44.632Z,12.00
2023-01-30T15:46:08.353Z,15.25
2023-01-30T15:51:17.704Z,11.50
2023-01-30T15:56:27.519Z,11.75
2023-01-30T16:01:35.744Z,10.75
2023-01-30T16:06:41.145Z,13.00
2023-01-30T16:11:48.436Z,11.00
2023-01-30T16:17:05.618Z,11.00
2023-01-30T16:22:21.552Z,10.75
2023-01-30T16:27:30.974Z,10.75
2023-01-30T16:32:36.931Z,11.50
2023-01-30T16:37:42.133Z,13.50
2023-01-30T16:43:19.225Z,12.75
2023-01-30T16:48:26.982Z,12.00
2023-01-30T16:53:33.565Z,10.50
2023-01-30T16:58:39.835Z,10.50
2023-01-30T17:03:50.701Z,12.75
2023-01-30T17:19:43.277Z,11.25
2023-01-30T17:24:48.258Z,11.50
2023-01-30T17:29:53.147Z,14.75
2023-01-30T17:34:57.941Z,12.25
2023-01-30T17:40:03.264Z,11.75
2023-01-30T17:45:08.522Z,11.50
2023-01-30T17:50:18.188Z,11.50
2023-01-30T17:55:23.313Z,12.50
2023-01-30T18:00:28.561Z,9.25
2023-01-30T18:05:33.248Z,10.75
2023-01-30T18:10:40.458Z,12.25
2023-01-30T18:15:45.296Z,12.50
2023-01-30T18:20:49.898Z,11.25
2023-01-30T18:25:54.473Z,10.00
2023-01-30T18:30:59.184Z,9.50
2023-01-30T18:36:07.932Z,9.75
2023-01-30T18:41:13.660Z,9.75
2023-01-30T18:46:18.915Z,12.25
2023-01-30T18:51:24.770Z,12.25
2023-01-30T18:56:32.536Z,13.25
2023-01-30T19:01:40.150Z,10.50
2023-01-30T19:06:45.150Z,10.75
2023-01-30T19:12:07.542Z,10.25
2023-01-30T19:17:12.384Z,12.50
2023-01-30T19:22:18.158Z,13.50
2023-01-30T19:27:23.383Z,12.00
2023-01-30T19:32:28.154Z,9.75
2023-01-30T19:37:32.999Z,8.75
2023-01-30T19:42:40.354Z,13.25
2023-01-30T19:47:48.285Z,10.50
2023-01-30T19:52:55.834Z,10.50
2023-01-30T19:58:00.645Z,10.25
2023-01-30T20:03:05.224Z,12.00
2023-01-30T20:08:21.842Z,12.25
2023-01-30T20:13:36.159Z,13.00
2023-01-30T20:18:41.361Z,13.00
2023-01-30T20:23:46.475Z,14.25
2023-01-30T20:28:51.049Z,12.50
2023-01-30T20:33:57.913Z,10.00
2023-01-30T20:39:05.150Z,9.50
2023-01-30T20:44:10.535Z,11.50
2023-01-30T20:49:19.752Z,13.75
2023-01-30T20:54:24.966Z,12.00
2023-01-30T20:59:30.042Z,11.50
2023-01-30T21:04:34.643Z,18.00
2023-01-30T21:09:39.474Z,15.50
2023-01-30T21:14:44.002Z,10.00
2023-01-30T21:19:48.233Z,12.00
2023-01-30T21:24:52.756Z,12.25
2023-01-30T21:29:57.550Z,11.75
2023-01-30T21:35:02.050Z,11.50
2023-01-30T21:40:24.997Z,12.75
2023-01-30T21:45:29.209Z,13.00
2023-01-30T21:50:33.695Z,12.00
2023-01-30T21:55:38.869Z,11.00
2023-01-30T22:00:43.437Z,9.75
2023-01-30T22:05:47.860Z,9.25
2023-01-30T22:10:52.480Z,8.25
2023-01-30T22:15:56.995Z,8.00
2023-01-30T22:21:09.014Z,7.00
2023-01-30T22:26:14.307Z,9.25
2023-01-30T22:31:20.096Z,6.25
2023-01-30T22:36:25.903Z,9.75
2023-01-30T22:41:32.253Z,10.50
2023-01-30T22:46:38.691Z,10.50
2023-01-30T22:51:44.826Z,10.00
2023-01-30T22:56:50.256Z,10.50
2023-01-30T23:01:54.928Z,10.75
2023-01-30T23:07:00.806Z,11.25
2023-01-30T23:12:23.500Z,13.00
2023-01-30T23:17:46.718Z,10.25
2023-01-30T23:22:54.585Z,11.00
2023-01-30T23:27:59.283Z,9.50
2023-01-30T23:33:03.911Z,11.25
2023-01-30T23:38:17.274Z,11.75
2023-01-30T23:43:22.005Z,12.00
2023-01-30T23:48:26.555Z,12.25
2023-01-30T23:53:31.081Z,12.50
2023-01-30T23:58:36.470Z,11.75
